createdAt,value
2022-10-24T00:02:40.279Z,7.25
2022-10-24T00:06:02.268Z,7.57
2022-10-24T00:09:24.224Z,7.65
2022-10-24T00:12:47.254Z,8.20
2022-10-24T00:16:09.890Z,7.05
2022-10-24T00:19:31.892Z,7.25
2022-10-24T00:22:53.957Z,7.25
2022-10-24T00:26:16.933Z,6.85
2022-10-24T00:29:39.105Z,7.70
2022-10-24T00:33:01.174Z,6.93
2022-10-24T00:36:24.319Z,7.68
2022-10-24T00:39:46.278Z,7.28
2022-10-24T00:43:19.827Z,7.13
2022-10-24T00:46:49.130Z,7.97
2022-10-24T00:50:15.311Z,7.35
2022-10-24T00:53:52.110Z,7.70
2022-10-24T00:57:31.922Z,7.97
2022-10-24T01:00:54.148Z,8.68
2022-10-24T01:04:16.230Z,7.93
2022-10-24T01:07:52.993Z,7.82
2022-10-24T01:11:27.009Z,7.28
2022-10-24T01:14:58.121Z,7.35
2022-10-24T01:18:36.206Z,7.85
2022-10-24T01:22:09.538Z,7.45
2022-10-24T01:25:43.573Z,7.60
2022-10-24T01:29:17.119Z,8.00
2022-10-24T01:33:09.604Z,7.45
2022-10-24T01:36:44.199Z,7.22
2022-10-24T01:40:30.128Z,7.13
2022-10-24T01:47:29.278Z,8.02
2022-10-24T01:50:54.841Z,6.18
2022-10-24T01:54:17.620Z,7.50
2022-10-24T01:57:40.131Z,7.55
2022-10-24T02:01:08.155Z,7.35
2022-10-24T02:04:32.640Z,7.40
2022-10-24T02:07:57.851Z,7.72
2022-10-24T02:11:20.008Z,8.20
2022-10-24T02:14:48.835Z,8.68
2022-10-24T02:18:11.839Z,8.77
2022-10-24T02:21:42.453Z,8.25
2022-10-24T02:25:15.157Z,8.82
2022-10-24T02:28:43.503Z,7.95
2022-10-24T02:32:11.258Z,7.97
2022-10-24T02:35:37.045Z,8.02
2022-10-24T02:39:00.668Z,8.50
2022-10-24T02:42:25.449Z,8.52
2022-10-24T02:45:48.627Z,8.93
2022-10-24T02:49:10.750Z,8.15
2022-10-24T02:52:33.637Z,9.02
2022-10-24T02:55:55.639Z,10.27
2022-10-24T02:59:17.632Z,8.80
2022-10-24T03:02:39.595Z,8.20
2022-10-24T03:06:01.629Z,8.68
2022-10-24T03:09:23.631Z,8.35
2022-10-24T03:12:45.884Z,8.25
2022-10-24T03:16:11.712Z,8.70
2022-10-24T03:19:36.078Z,8.77
2022-10-24T03:22:58.894Z,9.63
2022-10-24T03:26:20.915Z,7.70
2022-10-24T03:29:42.873Z,7.95
2022-10-24T03:33:04.872Z,8.18
2022-10-24T03:36:26.968Z,10.10
2022-10-24T03:39:49.242Z,8.80
2022-10-24T03:43:11.251Z,9.15
2022-10-24T03:46:33.211Z,8.05
2022-10-24T03:49:55.264Z,7.93
2022-10-24T03:53:17.218Z,8.18
2022-10-24T03:56:39.262Z,8.10
2022-10-24T04:00:01.244Z,9.05
2022-10-24T04:03:23.337Z,8.38
2022-10-24T04:06:45.342Z,8.07
2022-10-24T04:10:08.139Z,7.68
2022-10-24T04:13:30.129Z,7.57
2022-10-24T04:16:52.097Z,8.32
2022-10-24T04:20:22.517Z,10.50
2022-10-24T04:23:44.564Z,9.00
2022-10-24T04:27:08.004Z,9.00
2022-10-24T04:30:30.126Z,8.70
2022-10-24T04:33:52.223Z,8.73
2022-10-24T04:37:14.354Z,8.07
2022-10-24T04:40:36.407Z,9.05
2022-10-24T04:43:58.451Z,7.50
2022-10-24T04:50:49.932Z,8.90
2022-10-24T04:54:11.926Z,8.43
2022-10-24T04:57:33.944Z,9.23
2022-10-24T05:00:56.100Z,8.43
2022-10-24T05:04:20.680Z,9.15
2022-10-24T05:07:43.480Z,8.35
2022-10-24T05:11:11.412Z,8.57
2022-10-24T05:14:33.914Z,8.52
2022-10-24T05:17:59.231Z,7.80
2022-10-24T05:21:21.323Z,8.30
2022-10-24T05:24:44.399Z,7.97
2022-10-24T05:28:09.646Z,7.95
2022-10-24T05:34:54.132Z,9.20
2022-10-24T05:38:16.149Z,9.93
2022-10-24T05:41:43.322Z,8.48
2022-10-24T05:45:10.196Z,8.90
2022-10-24T05:48:32.166Z,11.00
2022-10-24T05:51:54.204Z,10.63
2022-10-24T05:55:18.173Z,10.52
2022-10-24T05:58:40.481Z,10.25
2022-10-24T06:02:02.643Z,10.23
2022-10-24T06:05:24.809Z,10.77
2022-10-24T06:08:46.899Z,9.60
2022-10-24T06:12:10.622Z,9.70
2022-10-24T06:15:32.766Z,11.13
2022-10-24T06:18:54.765Z,11.18
2022-10-24T06:22:17.985Z,10.60
2022-10-24T06:25:43.202Z,11.38
2022-10-24T06:29:05.229Z,28.88
2022-10-24T06:32:27.416Z,31.80
2022-10-24T06:35:49.407Z,17.95
2022-10-24T06:39:11.360Z,14.80
2022-10-24T06:42:33.441Z,22.63
2022-10-24T06:45:55.688Z,17.90
2022-10-24T06:49:17.826Z,12.65
2022-10-24T06:52:39.872Z,13.45
2022-10-24T06:56:03.033Z,13.82
2022-10-24T06:59:25.174Z,14.65
2022-10-24T07:02:47.476Z,11.52
2022-10-24T07:06:27.975Z,10.80
2022-10-24T07:09:57.909Z,10.80
2022-10-24T07:13:19.920Z,8.73
2022-10-24T07:16:41.895Z,8.38
2022-10-24T07:20:04.024Z,8.30
2022-10-24T07:23:27.258Z,7.22
2022-10-24T07:26:49.365Z,7.43
2022-10-24T07:30:17.081Z,6.70
2022-10-24T07:33:39.369Z,6.15
2022-10-24T07:37:03.296Z,5.50
2022-10-24T07:40:25.238Z,6.30
2022-10-24T07:43:47.667Z,5.95
2022-10-24T07:47:12.111Z,6.53
2022-10-24T07:51:04.576Z,6.18
2022-10-24T07:54:30.648Z,6.95
2022-10-24T07:57:55.270Z,7.03
2022-10-24T08:01:22.560Z,7.57
2022-10-24T08:04:45.175Z,8.65
2022-10-24T08:08:39.582Z,7.80
2022-10-24T08:11:52.737Z,7.93
2022-10-24T08:15:14.714Z,9.07
2022-10-24T08:18:38.872Z,9.50
2022-10-24T08:22:02.860Z,9.60
2022-10-24T08:25:25.099Z,10.55
2022-10-24T08:28:47.437Z,9.15
2022-10-24T08:32:09.375Z,9.48
2022-10-24T08:35:31.392Z,8.75
2022-10-24T08:38:53.991Z,9.25
2022-10-24T08:42:17.992Z,9.45
2022-10-24T08:46:02.082Z,10.13
2022-10-24T08:49:37.638Z,9.90
2022-10-24T08:53:24.476Z,9.38
2022-10-24T08:56:47.707Z,10.50
2022-10-24T09:00:29.816Z,10.38
2022-10-24T09:03:57.276Z,10.30
2022-10-24T09:07:21.928Z,9.88
2022-10-24T09:10:53.189Z,9.68
2022-10-24T09:14:29.021Z,9.45
2022-10-24T09:17:51.368Z,9.65
2022-10-24T09:21:15.908Z,9.48
2022-10-24T09:24:47.291Z,8.85
2022-10-24T09:28:11.556Z,9.75
2022-10-24T09:31:33.892Z,8.77
2022-10-24T09:34:58.512Z,8.70
2022-10-24T09:38:24.369Z,10.57
2022-10-24T09:41:46.931Z,10.65
2022-10-24T09:45:25.216Z,9.85
2022-10-24T09:48:47.205Z,10.07
2022-10-24T09:52:22.193Z,9.70
2022-10-24T09:55:47.089Z,8.85
2022-10-24T09:59:37.011Z,10.23
2022-10-24T10:03:21.295Z,9.60
2022-10-24T10:06:50.190Z,9.07
2022-10-24T10:10:18.304Z,8.85
2022-10-24T10:13:50.434Z,8.73
2022-10-24T10:17:25.773Z,9.52
2022-10-24T10:21:11.553Z,9.13
2022-10-24T10:24:40.937Z,9.27
2022-10-24T10:28:03.278Z,7.70
2022-10-24T10:31:35.381Z,7.40
2022-10-24T10:35:06.992Z,8.70
2022-10-24T10:39:08.535Z,9.10
2022-10-24T10:42:30.528Z,8.73
2022-10-24T10:46:01.791Z,9.27
2022-10-24T10:49:42.203Z,9.18
2022-10-24T10:53:35.096Z,8.40
2022-10-24T10:57:17.528Z,8.73
2022-10-24T11:00:51.840Z,8.77
2022-10-24T11:04:55.070Z,10.23
2022-10-24T11:08:29.340Z,9.20
2022-10-24T11:12:14.130Z,8.73
2022-10-24T11:15:40.321Z,8.80
2022-10-24T11:19:11.057Z,8.48
2022-10-24T11:22:48.663Z,7.95
2022-10-24T11:26:18.374Z,9.15
2022-10-24T11:29:58.202Z,8.82
2022-10-24T11:33:31.552Z,8.32
2022-10-24T11:37:11.602Z,7.97
2022-10-24T11:40:35.409Z,7.97
2022-10-24T11:44:01.866Z,8.32
2022-10-24T11:47:27.015Z,7.85
2022-10-24T11:51:01.197Z,7.68
2022-10-24T11:54:32.017Z,8.52
2022-10-24T11:58:00.318Z,7.82
2022-10-24T12:01:45.702Z,7.70
2022-10-24T12:09:22.009Z,7.95
2022-10-24T12:13:21.880Z,7.47
2022-10-24T12:17:32.370Z,7.43
2022-10-24T12:20:56.735Z,7.07
2022-10-24T12:24:39.041Z,8.27
2022-10-24T12:28:18.268Z,8.02
2022-10-24T12:31:40.592Z,7.15
2022-10-24T12:35:29.968Z,6.40
2022-10-24T12:39:08.428Z,8.70
2022-10-24T12:42:30.347Z,7.45
2022-10-24T12:45:52.470Z,7.18
2022-10-24T12:49:29.979Z,8.43
2022-10-24T12:52:57.789Z,7.70
2022-10-24T12:56:21.920Z,8.15
2022-10-24T13:00:00.305Z,7.25
2022-10-24T13:03:45.868Z,7.93
2022-10-24T13:07:48.331Z,8.52
2022-10-24T13:11:34.285Z,7.30
2022-10-24T13:15:14.542Z,7.15
2022-10-24T13:19:01.194Z,7.13
2022-10-24T13:22:33.734Z,7.45
2022-10-24T13:25:58.530Z,7.40
2022-10-24T13:29:26.241Z,7.93
2022-10-24T13:32:48.320Z,8.15
2022-10-24T13:36:17.669Z,8.73
2022-10-24T13:39:47.630Z,8.50
2022-10-24T13:43:20.876Z,7.82
2022-10-24T13:47:01.020Z,8.00
2022-10-24T13:50:36.646Z,9.07
2022-10-24T13:54:09.216Z,8.85
2022-10-24T13:57:37.461Z,8.23
2022-10-24T14:01:04.168Z,8.57
2022-10-24T14:04:28.246Z,8.20
2022-10-24T14:07:50.464Z,7.85
2022-10-24T14:11:24.822Z,7.28
2022-10-24T14:14:49.607Z,7.50
2022-10-24T14:21:48.631Z,8.68
2022-10-24T14:25:33.247Z,9.55
2022-10-24T14:29:00.099Z,10.25
2022-10-24T14:32:22.757Z,10.63
2022-10-24T14:35:44.915Z,10.85
2022-10-24T14:39:07.116Z,10.27
2022-10-24T14:42:30.780Z,11.40
2022-10-24T14:46:13.981Z,11.50
2022-10-24T14:49:37.008Z,10.43
2022-10-24T14:53:00.589Z,10.65
2022-10-24T14:56:36.858Z,10.35
2022-10-24T15:00:07.486Z,11.13
2022-10-24T15:03:30.007Z,10.85
2022-10-24T15:06:56.895Z,10.73
2022-10-24T15:10:18.842Z,12.02
2022-10-24T15:13:50.888Z,9.60
2022-10-24T15:17:32.490Z,7.70
2022-10-24T15:21:07.769Z,7.68
2022-10-24T15:24:29.868Z,9.60
2022-10-24T15:27:59.409Z,8.68
2022-10-24T15:31:22.495Z,7.63
2022-10-24T15:34:44.470Z,8.85
2022-10-24T15:38:18.706Z,8.35
2022-10-24T15:41:40.872Z,9.10
2022-10-24T15:45:02.856Z,7.75
2022-10-24T15:48:24.924Z,8.90
2022-10-24T15:51:50.285Z,8.40
2022-10-24T15:55:24.299Z,9.65
2022-10-24T16:02:18.819Z,10.68
2022-10-24T16:05:43.907Z,9.90
2022-10-24T16:09:13.509Z,10.05
2022-10-24T16:12:35.481Z,9.67
2022-10-24T16:15:57.430Z,8.85
2022-10-24T16:19:19.518Z,9.13
2022-10-24T16:22:43.244Z,9.77
2022-10-24T16:26:05.468Z,9.52
2022-10-24T16:29:27.454Z,8.82
2022-10-24T16:32:49.541Z,8.73
2022-10-24T16:36:11.560Z,9.10
2022-10-24T16:39:34.241Z,9.88
2022-10-24T16:42:57.688Z,9.48
2022-10-24T16:46:21.868Z,9.25
2022-10-24T16:49:45.455Z,8.70
2022-10-24T16:53:08.931Z,9.18
2022-10-24T16:56:31.085Z,8.60
2022-10-24T16:59:53.096Z,7.93
2022-10-24T17:03:15.563Z,8.55
2022-10-24T17:06:38.914Z,9.57
2022-10-24T17:10:00.857Z,8.88
2022-10-24T17:13:23.524Z,9.15
2022-10-24T17:16:45.616Z,9.70
2022-10-24T17:20:09.961Z,9.38
2022-10-24T17:23:32.499Z,9.10
2022-10-24T17:26:55.028Z,9.18
2022-10-24T17:30:23.697Z,9.35
2022-10-24T17:33:45.825Z,9.80
2022-10-24T17:37:22.572Z,9.80
2022-10-24T17:40:50.748Z,11.07
2022-10-24T17:44:18.168Z,10.50
2022-10-24T17:47:40.506Z,9.88
2022-10-24T17:51:02.821Z,10.93
2022-10-24T17:54:24.884Z,10.75
2022-10-24T17:57:47.287Z,11.68
2022-10-24T18:01:11.479Z,11.68
2022-10-24T18:04:33.610Z,12.82
2022-10-24T18:08:00.949Z,13.45
2022-10-24T18:11:26.063Z,13.13
2022-10-24T18:14:49.095Z,12.93
2022-10-24T18:18:14.507Z,13.20
2022-10-24T18:21:37.974Z,14.07
2022-10-24T18:25:06.254Z,13.35
2022-10-24T18:32:48.823Z,12.93
2022-10-24T18:36:14.145Z,14.32
2022-10-24T18:39:39.894Z,14.80
2022-10-24T18:43:08.000Z,13.80
2022-10-24T18:46:31.100Z,13.80
2022-10-24T18:49:54.510Z,13.90
2022-10-24T18:53:24.945Z,13.15
2022-10-24T18:56:48.927Z,13.48
2022-10-24T19:00:15.558Z,12.95
2022-10-24T19:03:38.242Z,13.75
2022-10-24T19:07:10.397Z,13.68
2022-10-24T19:10:56.870Z,12.20
2022-10-24T19:14:21.727Z,12.40
2022-10-24T19:17:59.091Z,12.30
2022-10-24T19:21:26.975Z,13.13
2022-10-24T19:24:49.637Z,13.05
2022-10-24T19:28:15.742Z,12.43
2022-10-24T19:31:37.677Z,12.75
2022-10-24T19:34:59.776Z,12.68
2022-10-24T19:38:22.058Z,11.35
2022-10-24T19:41:44.262Z,12.05
2022-10-24T19:45:07.629Z,11.80
2022-10-24T19:48:32.248Z,11.85
2022-10-24T19:51:55.568Z,12.50
2022-10-24T19:55:17.703Z,11.55
2022-10-24T19:58:43.147Z,12.05
2022-10-24T20:02:06.139Z,10.65
2022-10-24T20:05:28.102Z,10.43
2022-10-24T20:08:50.157Z,11.98
2022-10-24T20:12:12.194Z,12.32
2022-10-24T20:15:34.172Z,12.25
2022-10-24T20:18:56.225Z,11.95
2022-10-24T20:22:18.133Z,12.27
2022-10-24T20:25:40.058Z,12.32
2022-10-24T20:29:02.880Z,11.98
2022-10-24T20:32:25.193Z,12.30
2022-10-24T20:35:47.242Z,12.30
2022-10-24T20:39:09.472Z,12.57
2022-10-24T20:42:31.477Z,11.65
2022-10-24T20:45:53.400Z,11.63
2022-10-24T20:49:15.341Z,11.82
2022-10-24T20:52:37.350Z,11.68
2022-10-24T20:56:07.829Z,12.05
2022-10-24T20:59:29.800Z,12.07
2022-10-24T21:02:52.214Z,11.02
2022-10-24T21:06:15.679Z,12.50
2022-10-24T21:09:38.150Z,11.80
2022-10-24T21:13:00.213Z,10.77
2022-10-24T21:16:22.798Z,9.88
2022-10-24T21:19:45.077Z,11.85
2022-10-24T21:23:07.085Z,12.02
2022-10-24T21:26:29.061Z,11.40
2022-10-24T21:29:51.431Z,11.52
2022-10-24T21:33:13.426Z,11.00
2022-10-24T21:36:35.380Z,11.23
2022-10-24T21:39:57.339Z,12.10
2022-10-24T21:43:19.228Z,10.30
2022-10-24T21:46:43.683Z,9.38
2022-10-24T21:50:05.912Z,10.52
2022-10-24T21:53:29.362Z,10.75
2022-10-24T21:56:51.631Z,10.15
2022-10-24T22:00:14.192Z,10.95
2022-10-24T22:03:36.124Z,10.32
2022-10-24T22:06:58.068Z,10.57
2022-10-24T22:10:20.093Z,10.73
2022-10-24T22:13:45.123Z,11.25
2022-10-24T22:17:07.271Z,10.88
2022-10-24T22:20:29.279Z,12.75
2022-10-24T22:23:51.356Z,11.50
2022-10-24T22:27:13.518Z,12.27
2022-10-24T22:30:35.767Z,12.18
2022-10-24T22:33:58.667Z,13.27
2022-10-24T22:37:27.825Z,14.25
2022-10-24T22:40:50.191Z,13.07
2022-10-24T22:44:14.695Z,12.00
2022-10-24T22:47:41.656Z,12.60
2022-10-24T22:51:03.985Z,13.25
2022-10-24T22:54:29.684Z,12.75
2022-10-24T22:57:52.093Z,11.95
2022-10-24T23:01:41.764Z,12.73
2022-10-24T23:05:13.975Z,11.40
2022-10-24T23:08:39.245Z,12.27
2022-10-24T23:12:01.360Z,12.48
2022-10-24T23:15:24.193Z,13.05
2022-10-24T23:18:46.496Z,11.98
2022-10-24T23:22:28.223Z,11.98
2022-10-24T23:25:57.877Z,11.90
2022-10-24T23:29:34.308Z,10.13
2022-10-24T23:32:56.476Z,11.90
2022-10-24T23:36:25.165Z,11.10
2022-10-24T23:39:50.204Z,9.40
2022-10-24T23:43:16.785Z,11.05
2022-10-24T23:46:45.889Z,9.80
2022-10-24T23:50:17.085Z,10.38
2022-10-24T23:53:53.685Z,11.38
2022-10-24T23:57:18.338Z,9.52
